sensor_id;sensor_type;location;lat;lon;timestamp;pressure;altitude;pressure_sealevel;temperature;humidity
52625;BME280;38519;52.540;13.410;2023-05-03T00:02:07;101725.69;;;8.35;66.07
52625;BME280;38519;52.540;13.410;2023-05-03T00:04:33;101718.03;;;8.36;66.14
52625;BME280;38519;52.540;13.410;2023-05-03T00:06:58;101731.19;;;8.29;66.14
52625;BME280;38519;52.540;13.410;2023-05-03T00:09:24;101731.66;;;8.25;66.15
52625;BME280;38519;52.540;13.410;2023-05-03T00:11:49;101727.81;;;8.21;66.28
52625;BME280;38519;52.540;13.410;2023-05-03T00:14:15;101733.19;;;8.14;66.71
52625;BME280;38519;52.540;13.410;2023-05-03T00:16:40;101737.03;;;8.18;66.48
52625;BME280;38519;52.540;13.410;2023-05-03T00:19:05;101731.84;;;8.09;70.09
52625;BME280;38519;52.540;13.410;2023-05-03T00:21:31;101735.78;;;8.06;66.96
52625;BME280;38519;52.540;13.410;2023-05-03T00:23:56;101735.78;;;8.06;66.87
52625;BME280;38519;52.540;13.410;2023-05-03T00:26:21;101729.38;;;8.02;67.55
52625;BME280;38519;52.540;13.410;2023-05-03T00:28:46;101730.00;;;7.91;67.54
52625;BME280;38519;52.540;13.410;2023-05-03T00:31:12;101723.88;;;7.81;68.68
52625;BME280;38519;52.540;13.410;2023-05-03T00:33:37;101731.50;;;7.80;68.44
52625;BME280;38519;52.540;13.410;2023-05-03T00:36:09;101723.56;;;7.70;68.97
52625;BME280;38519;52.540;13.410;2023-05-03T00:38:35;101722.34;;;7.66;70.98
52625;BME280;38519;52.540;13.410;2023-05-03T00:41:00;101734.25;;;7.64;69.35
52625;BME280;38519;52.540;13.410;2023-05-03T00:43:27;101733.66;;;7.66;71.70
52625;BME280;38519;52.540;13.410;2023-05-03T00:45:52;101725.84;;;7.66;71.21
52625;BME280;38519;52.540;13.410;2023-05-03T00:48:18;101734.25;;;7.64;69.92
52625;BME280;38519;52.540;13.410;2023-05-03T00:50:44;101734.72;;;7.69;71.68
52625;BME280;38519;52.540;13.410;2023-05-03T00:53:09;101729.38;;;7.58;72.89
52625;BME280;38519;52.540;13.410;2023-05-03T00:55:35;101729.06;;;7.46;71.88
52625;BME280;38519;52.540;13.410;2023-05-03T00:58:01;101724.94;;;7.48;71.50
52625;BME280;38519;52.540;13.410;2023-05-03T01:00:26;101730.41;;;7.43;71.37
52625;BME280;38519;52.540;13.410;2023-05-03T01:02:52;101725.69;;;7.39;72.53
52625;BME280;38519;52.540;13.410;2023-05-03T01:05:18;101726.28;;;7.36;71.99
52625;BME280;38519;52.540;13.410;2023-05-03T01:08:01;101728.56;;;7.33;72.41
52625;BME280;38519;52.540;13.410;2023-05-03T01:10:47;101726.69;;;7.15;74.02
52625;BME280;38519;52.540;13.410;2023-05-03T01:13:23;101729.41;;;7.07;73.31
52625;BME280;38519;52.540;13.410;2023-05-03T01:18:22;101732.28;;;7.02;74.84
52625;BME280;38519;52.540;13.410;2023-05-03T01:20:48;101730.78;;;7.04;74.41
52625;BME280;38519;52.540;13.410;2023-05-03T01:23:21;101730.13;;;6.98;74.96
52625;BME280;38519;52.540;13.410;2023-05-03T01:25:52;101731.03;;;6.98;77.48
52625;BME280;38519;52.540;13.410;2023-05-03T01:28:18;101736.84;;;6.96;74.97
52625;BME280;38519;52.540;13.410;2023-05-03T01:30:43;101738.22;;;6.92;75.17
52625;BME280;38519;52.540;13.410;2023-05-03T01:33:12;101738.38;;;6.93;75.62
52625;BME280;38519;52.540;13.410;2023-05-03T01:38:12;101742.16;;;6.88;75.21
52625;BME280;38519;52.540;13.410;2023-05-03T01:40:41;101740.50;;;6.89;75.33
52625;BME280;38519;52.540;13.410;2023-05-03T01:43:10;101737.84;;;6.80;75.65
52625;BME280;38519;52.540;13.410;2023-05-03T01:45:36;101740.50;;;6.64;78.19
52625;BME280;38519;52.540;13.410;2023-05-03T01:48:02;101748.78;;;6.69;76.34
52625;BME280;38519;52.540;13.410;2023-05-03T01:50:32;101743.97;;;6.56;78.14
52625;BME280;38519;52.540;13.410;2023-05-03T01:52:57;101744.13;;;6.57;77.37
52625;BME280;38519;52.540;13.410;2023-05-03T01:55:23;101741.69;;;6.50;77.71
52625;BME280;38519;52.540;13.410;2023-05-03T01:57:48;101742.72;;;6.44;78.02
52625;BME280;38519;52.540;13.410;2023-05-03T02:00:13;101740.50;;;6.31;79.64
52625;BME280;38519;52.540;13.410;2023-05-03T02:02:38;101739.22;;;6.27;80.15
52625;BME280;38519;52.540;13.410;2023-05-03T02:05:04;101742.16;;;6.30;79.34
52625;BME280;38519;52.540;13.410;2023-05-03T02:07:29;101745.34;;;6.28;79.16
52625;BME280;38519;52.540;13.410;2023-05-03T02:09:54;101747.63;;;6.25;80.00
52625;BME280;38519;52.540;13.410;2023-05-03T02:12:20;101742.34;;;6.16;80.30
52625;BME280;38519;52.540;13.410;2023-05-03T02:14:45;101752.56;;;6.14;80.17
52625;BME280;38519;52.540;13.410;2023-05-03T02:17:11;101747.28;;;6.22;79.45
52625;BME280;38519;52.540;13.410;2023-05-03T02:19:36;101750.28;;;6.17;79.79
52625;BME280;38519;52.540;13.410;2023-05-03T02:22:02;101750.25;;;6.09;80.00
52625;BME280;38519;52.540;13.410;2023-05-03T02:24:28;101750.50;;;6.03;80.45
52625;BME280;38519;52.540;13.410;2023-05-03T02:26:55;101760.94;;;5.96;80.18
52625;BME280;38519;52.540;13.410;2023-05-03T02:29:20;101757.66;;;5.90;81.29
52625;BME280;38519;52.540;13.410;2023-05-03T02:31:45;101759.19;;;5.88;81.46
52625;BME280;38519;52.540;13.410;2023-05-03T02:34:10;101759.34;;;5.89;81.75
52625;BME280;38519;52.540;13.410;2023-05-03T02:36:36;101766.97;;;5.88;81.16
52625;BME280;38519;52.540;13.410;2023-05-03T02:39:01;101768.72;;;5.80;81.25
52625;BME280;38519;52.540;13.410;2023-05-03T02:41:28;101770.06;;;5.76;82.91
52625;BME280;38519;52.540;13.410;2023-05-03T02:43:53;101773.56;;;5.77;82.17
52625;BME280;38519;52.540;13.410;2023-05-03T02:46:19;101768.28;;;5.68;83.45
52625;BME280;38519;52.540;13.410;2023-05-03T02:48:44;101775.09;;;5.75;82.29
52625;BME280;38519;52.540;13.410;2023-05-03T02:51:09;101776.22;;;5.70;83.12
52625;BME280;38519;52.540;13.410;2023-05-03T02:53:34;101774.63;;;5.63;83.20
52625;BME280;38519;52.540;13.410;2023-05-03T02:56:00;101780.94;;;5.65;82.41
52625;BME280;38519;52.540;13.410;2023-05-03T02:58:25;101776.91;;;5.60;83.52
52625;BME280;38519;52.540;13.410;2023-05-03T03:00:50;101778.06;;;5.55;83.03
52625;BME280;38519;52.540;13.410;2023-05-03T03:03:16;101784.47;;;5.42;84.81
52625;BME280;38519;52.540;13.410;2023-05-03T03:05:41;101790.47;;;5.34;85.19
52625;BME280;38519;52.540;13.410;2023-05-03T03:08:07;101789.66;;;5.26;85.82
52625;BME280;38519;52.540;13.410;2023-05-03T03:10:32;101783.81;;;5.36;85.03
52625;BME280;38519;52.540;13.410;2023-05-03T03:12:57;101790.47;;;5.34;85.54
52625;BME280;38519;52.540;13.410;2023-05-03T03:15:22;101789.34;;;5.39;84.52
52625;BME280;38519;52.540;13.410;2023-05-03T03:17:48;101789.78;;;5.28;86.05
52625;BME280;38519;52.540;13.410;2023-05-03T03:20:13;101789.78;;;5.28;85.19
52625;BME280;38519;52.540;13.410;2023-05-03T03:22:39;101794.97;;;5.28;85.25
52625;BME280;38519;52.540;13.410;2023-05-03T03:25:05;101794.06;;;5.27;84.75
52625;BME280;38519;52.540;13.410;2023-05-03T03:27:30;101796.66;;;5.27;85.35
52625;BME280;38519;52.540;13.410;2023-05-03T03:29:56;101799.50;;;5.22;84.71
52625;BME280;38519;52.540;13.410;2023-05-03T03:32:21;101800.28;;;5.14;86.09
52625;BME280;38519;52.540;13.410;2023-05-03T03:34:46;101801.97;;;5.13;85.61
52625;BME280;38519;52.540;13.410;2023-05-03T03:37:12;101799.19;;;5.11;85.76
52625;BME280;38519;52.540;13.410;2023-05-03T03:39:37;101796.28;;;5.08;86.16
52625;BME280;38519;52.540;13.410;2023-05-03T03:42:04;101808.47;;;5.09;86.84
52625;BME280;38519;52.540;13.410;2023-05-03T03:44:29;101801.53;;;5.01;86.83
52625;BME280;38519;52.540;13.410;2023-05-03T03:46:54;101806.34;;;4.98;86.93
52625;BME280;38519;52.540;13.410;2023-05-03T03:49:20;101807.06;;;5.04;86.63
52625;BME280;38519;52.540;13.410;2023-05-03T03:51:45;101809.81;;;5.06;86.46
52625;BME280;38519;52.540;13.410;2023-05-03T03:54:10;101813.88;;;5.04;86.37
52625;BME280;38519;52.540;13.410;2023-05-03T03:56:35;101814.56;;;5.10;86.53
52625;BME280;38519;52.540;13.410;2023-05-03T03:59:01;101816.72;;;4.98;87.19
52625;BME280;38519;52.540;13.410;2023-05-03T04:01:27;101823.03;;;4.93;88.32
52625;BME280;38519;52.540;13.410;2023-05-03T04:03:52;101817.09;;;4.94;88.16
52625;BME280;38519;52.540;13.410;2023-05-03T04:06:17;101818.03;;;4.95;88.07
52625;BME280;38519;52.540;13.410;2023-05-03T04:08:43;101822.97;;;5.00;87.46
52625;BME280;38519;52.540;13.410;2023-05-03T04:11:09;101822.16;;;5.08;86.88
52625;BME280;38519;52.540;13.410;2023-05-03T04:13:35;101830.69;;;5.07;86.02
52625;BME280;38519;52.540;13.410;2023-05-03T04:16:01;101833.03;;;4.90;88.05
52625;BME280;38519;52.540;13.410;2023-05-03T04:18:26;101839.09;;;4.98;87.38
52625;BME280;38519;52.540;13.410;2023-05-03T04:20:51;101836.91;;;4.93;87.94
52625;BME280;38519;52.540;13.410;2023-05-03T04:23:17;101838.94;;;4.89;88.73
52625;BME280;38519;52.540;13.410;2023-05-03T04:25:43;101847.19;;;5.01;88.02
52625;BME280;38519;52.540;13.410;2023-05-03T04:28:10;101849.00;;;5.09;86.67
52625;BME280;38519;52.540;13.410;2023-05-03T04:30:36;101855.28;;;5.04;86.82
52625;BME280;38519;52.540;13.410;2023-05-03T04:33:01;101858.81;;;5.04;87.13
52625;BME280;38519;52.540;13.410;2023-05-03T04:35:27;101853.75;;;4.90;89.05
52625;BME280;38519;52.540;13.410;2023-05-03T04:37:53;101855.53;;;4.98;88.19
52625;BME280;38519;52.540;13.410;2023-05-03T04:40:18;101856.50;;;5.15;87.21
52625;BME280;38519;52.540;13.410;2023-05-03T04:42:43;101859.09;;;5.15;86.93
52625;BME280;38519;52.540;13.410;2023-05-03T04:45:09;101860.59;;;5.13;87.25
52625;BME280;38519;52.540;13.410;2023-05-03T04:47:35;101863.47;;;5.00;88.06
52625;BME280;38519;52.540;13.410;2023-05-03T04:50:01;101854.72;;;5.06;87.58
52625;BME280;38519;52.540;13.410;2023-05-03T04:52:26;101869.59;;;5.23;86.50
52625;BME280;38519;52.540;13.410;2023-05-03T04:54:51;101866.41;;;5.26;85.56
52625;BME280;38519;52.540;13.410;2023-05-03T04:57:17;101873.63;;;5.28;85.41
52625;BME280;38519;52.540;13.410;2023-05-03T04:59:42;101869.34;;;5.29;85.39
52625;BME280;38519;52.540;13.410;2023-05-03T05:02:07;101873.78;;;5.30;85.27
52625;BME280;38519;52.540;13.410;2023-05-03T05:04:32;101873.38;;;5.34;84.29
52625;BME280;38519;52.540;13.410;2023-05-03T05:06:58;101877.47;;;5.32;83.96
52625;BME280;38519;52.540;13.410;2023-05-03T05:09:24;101869.13;;;5.35;84.24
52625;BME280;38519;52.540;13.410;2023-05-03T05:11:50;101872.38;;;5.41;84.24
52625;BME280;38519;52.540;13.410;2023-05-03T05:14:15;101877.00;;;5.43;83.64
52625;BME280;38519;52.540;13.410;2023-05-03T05:16:41;101876.00;;;5.50;83.77
52625;BME280;38519;52.540;13.410;2023-05-03T05:19:06;101870.47;;;5.47;84.01
52625;BME280;38519;52.540;13.410;2023-05-03T05:21:33;101870.94;;;5.59;83.65
52625;BME280;38519;52.540;13.410;2023-05-03T05:24:00;101875.34;;;5.60;83.62
52625;BME280;38519;52.540;13.410;2023-05-03T05:26:26;101875.81;;;5.72;83.01
52625;BME280;38519;52.540;13.410;2023-05-03T05:28:51;101878.50;;;5.80;82.63
52625;BME280;38519;52.540;13.410;2023-05-03T05:31:18;101879.91;;;5.86;82.31
52625;BME280;38519;52.540;13.410;2023-05-03T05:33:43;101881.94;;;5.88;82.06
52625;BME280;38519;52.540;13.410;2023-05-03T05:36:08;101881.25;;;5.82;83.78
52625;BME280;38519;52.540;13.410;2023-05-03T05:38:36;101892.03;;;5.94;81.83
52625;BME280;38519;52.540;13.410;2023-05-03T05:41:01;101899.88;;;6.10;80.74
52625;BME280;38519;52.540;13.410;2023-05-03T05:43:26;101895.97;;;6.13;80.83
52625;BME280;38519;52.540;13.410;2023-05-03T05:45:52;101893.59;;;6.08;81.96
52625;BME280;38519;52.540;13.410;2023-05-03T05:48:17;101899.97;;;6.03;81.99
52625;BME280;38519;52.540;13.410;2023-05-03T05:50:42;101900.53;;;6.16;81.75
52625;BME280;38519;52.540;13.410;2023-05-03T05:53:07;101899.47;;;6.30;80.73
52625;BME280;38519;52.540;13.410;2023-05-03T05:55:33;101898.28;;;6.35;80.40
52625;BME280;38519;52.540;13.410;2023-05-03T05:57:59;101907.25;;;6.46;80.03
52625;BME280;38519;52.540;13.410;2023-05-03T06:00:24;101908.16;;;6.46;79.72
52625;BME280;38519;52.540;13.410;2023-05-03T06:02:50;101904.19;;;6.50;80.81
52625;BME280;38519;52.540;13.410;2023-05-03T06:05:15;101900.69;;;6.65;79.17
52625;BME280;38519;52.540;13.410;2023-05-03T06:07:40;101904.69;;;6.70;78.65
52625;BME280;38519;52.540;13.410;2023-05-03T06:10:06;101904.59;;;6.78;78.72
52625;BME280;38519;52.540;13.410;2023-05-03T06:12:31;101908.78;;;6.84;77.95
52625;BME280;38519;52.540;13.410;2023-05-03T06:14:57;101912.44;;;6.86;78.28
52625;BME280;38519;52.540;13.410;2023-05-03T06:17:22;101914.69;;;6.83;78.14
52625;BME280;38519;52.540;13.410;2023-05-03T06:19:49;101909.69;;;6.85;78.74
52625;BME280;38519;52.540;13.410;2023-05-03T06:22:15;101917.22;;;6.90;76.74
52625;BME280;38519;52.540;13.410;2023-05-03T06:24:40;101919.69;;;6.98;76.01
52625;BME280;38519;52.540;13.410;2023-05-03T06:27:06;101920.50;;;7.05;76.45
52625;BME280;38519;52.540;13.410;2023-05-03T06:29:31;101917.50;;;7.09;74.99
52625;BME280;38519;52.540;13.410;2023-05-03T06:31:56;101927.44;;;7.14;74.75
52625;BME280;38519;52.540;13.410;2023-05-03T06:34:22;101921.13;;;7.27;74.97
52625;BME280;38519;52.540;13.410;2023-05-03T06:36:48;101921.84;;;7.26;75.05
52625;BME280;38519;52.540;13.410;2023-05-03T06:39:13;101923.00;;;7.37;73.68
52625;BME280;38519;52.540;13.410;2023-05-03T06:41:38;101923.16;;;7.39;73.09
52625;BME280;38519;52.540;13.410;2023-05-03T06:44:03;101919.53;;;7.45;72.76
52625;BME280;38519;52.540;13.410;2023-05-03T06:46:29;101919.13;;;7.58;70.87
52625;BME280;38519;52.540;13.410;2023-05-03T06:48:54;101920.84;;;7.66;71.02
52625;BME280;38519;52.540;13.410;2023-05-03T06:51:24;101918.88;;;7.81;68.51
52625;BME280;38519;52.540;13.410;2023-05-03T06:53:54;101921.22;;;7.87;69.00
52625;BME280;38519;52.540;13.410;2023-05-03T06:56:20;101919.09;;;8.00;67.41
52625;BME280;38519;52.540;13.410;2023-05-03T06:58:45;101919.34;;;8.28;67.01
52625;BME280;38519;52.540;13.410;2023-05-03T07:01:11;101917.16;;;8.33;65.91
52625;BME280;38519;52.540;13.410;2023-05-03T07:03:36;101927.84;;;8.18;67.33
52625;BME280;38519;52.540;13.410;2023-05-03T07:06:01;101930.28;;;8.08;67.94
52625;BME280;38519;52.540;13.410;2023-05-03T07:08:27;101932.16;;;8.18;67.25
52625;BME280;38519;52.540;13.410;2023-05-03T07:10:52;101925.59;;;8.30;67.06
52625;BME280;38519;52.540;13.410;2023-05-03T07:13:17;101925.28;;;8.27;65.73
52625;BME280;38519;52.540;13.410;2023-05-03T07:15:42;101923.31;;;8.33;65.81
52625;BME280;38519;52.540;13.410;2023-05-03T07:18:09;101927.72;;;8.34;64.17
52625;BME280;38519;52.540;13.410;2023-05-03T07:20:34;101921.03;;;8.36;64.69
52625;BME280;38519;52.540;13.410;2023-05-03T07:23:00;101931.13;;;8.33;63.55
52625;BME280;38519;52.540;13.410;2023-05-03T07:25:25;101920.09;;;8.27;63.63
52625;BME280;38519;52.540;13.410;2023-05-03T07:27:51;101922.22;;;8.23;64.51
52625;BME280;38519;52.540;13.410;2023-05-03T07:30:17;101932.19;;;8.27;64.13
52625;BME280;38519;52.540;13.410;2023-05-03T07:32:43;101932.19;;;8.27;64.39
52625;BME280;38519;52.540;13.410;2023-05-03T07:35:08;101931.41;;;8.19;64.42
52625;BME280;38519;52.540;13.410;2023-05-03T07:37:33;101928.31;;;8.23;62.75
52625;BME280;38519;52.540;13.410;2023-05-03T07:39:59;101928.03;;;8.29;63.06
52625;BME280;38519;52.540;13.410;2023-05-03T07:42:24;101921.97;;;8.46;62.76
52625;BME280;38519;52.540;13.410;2023-05-03T07:44:49;101925.03;;;8.59;63.57
52625;BME280;38519;52.540;13.410;2023-05-03T07:47:15;101919.53;;;8.73;62.09
52625;BME280;38519;52.540;13.410;2023-05-03T07:49:40;101931.31;;;8.61;63.61
52625;BME280;38519;52.540;13.410;2023-05-03T07:52:05;101919.84;;;8.77;61.86
52625;BME280;38519;52.540;13.410;2023-05-03T07:54:30;101923.66;;;8.80;62.15
52625;BME280;38519;52.540;13.410;2023-05-03T07:56:56;101929.16;;;9.01;60.90
52625;BME280;38519;52.540;13.410;2023-05-03T07:59:21;101921.00;;;9.15;61.55
52625;BME280;38519;52.540;13.410;2023-05-03T08:01:46;101918.53;;;9.25;60.94
52625;BME280;38519;52.540;13.410;2023-05-03T08:04:11;101925.44;;;9.25;60.50
52625;BME280;38519;52.540;13.410;2023-05-03T08:06:37;101916.75;;;8.89;60.94
52625;BME280;38519;52.540;13.410;2023-05-03T08:09:03;101921.66;;;8.60;62.93
52625;BME280;38519;52.540;13.410;2023-05-03T08:11:28;101914.94;;;8.71;62.61
52625;BME280;38519;52.540;13.410;2023-05-03T08:13:54;101914.25;;;9.08;61.56
52625;BME280;38519;52.540;13.410;2023-05-03T08:16:19;101918.72;;;9.18;60.59
52625;BME280;38519;52.540;13.410;2023-05-03T08:18:45;101913.66;;;9.20;61.10
52625;BME280;38519;52.540;13.410;2023-05-03T08:21:11;101922.63;;;9.32;61.04
52625;BME280;38519;52.540;13.410;2023-05-03T08:23:37;101909.41;;;9.48;59.10
52625;BME280;38519;52.540;13.410;2023-05-03T08:26:03;101916.00;;;9.44;60.05
52625;BME280;38519;52.540;13.410;2023-05-03T08:28:28;101910.81;;;9.44;60.09
52625;BME280;38519;52.540;13.410;2023-05-03T08:30:55;101915.81;;;9.52;60.45
52625;BME280;38519;52.540;13.410;2023-05-03T08:33:20;101908.94;;;9.43;61.18
52625;BME280;38519;52.540;13.410;2023-05-03T08:35:46;101905.25;;;9.50;60.56
52625;BME280;38519;52.540;13.410;2023-05-03T08:38:11;101913.09;;;9.41;60.85
52625;BME280;38519;52.540;13.410;2023-05-03T08:40:37;101912.84;;;9.21;60.32
52625;BME280;38519;52.540;13.410;2023-05-03T08:43:07;101916.03;;;9.36;60.71
52625;BME280;38519;52.540;13.410;2023-05-03T08:45:34;101916.09;;;9.63;58.48
52625;BME280;38519;52.540;13.410;2023-05-03T08:47:59;101914.63;;;9.84;57.64
52625;BME280;38519;52.540;13.410;2023-05-03T08:50:26;101921.41;;;10.01;57.11
52625;BME280;38519;52.540;13.410;2023-05-03T08:52:52;101921.97;;;10.16;56.19
52625;BME280;38519;52.540;13.410;2023-05-03T08:55:17;101921.59;;;10.22;55.64
52625;BME280;38519;52.540;13.410;2023-05-03T08:57:43;101920.41;;;10.18;56.20
52625;BME280;38519;52.540;13.410;2023-05-03T09:00:08;101920.53;;;10.20;56.18
52625;BME280;38519;52.540;13.410;2023-05-03T09:02:36;101929.38;;;10.03;56.54
52625;BME280;38519;52.540;13.410;2023-05-03T09:05:29;101920.41;;;10.18;56.45
52625;BME280;38519;52.540;13.410;2023-05-03T09:10:28;101931.38;;;10.33;56.18
52625;BME280;38519;52.540;13.410;2023-05-03T09:12:57;101926.88;;;10.41;56.51
52625;BME280;38519;52.540;13.410;2023-05-03T09:15:23;101927.91;;;10.24;56.59
52625;BME280;38519;52.540;13.410;2023-05-03T09:18:05;101926.16;;;10.06;57.26
52625;BME280;38519;52.540;13.410;2023-05-03T09:20:33;101930.41;;;10.42;56.09
52625;BME280;38519;52.540;13.410;2023-05-03T09:22:59;101928.50;;;10.49;55.26
52625;BME280;38519;52.540;13.410;2023-05-03T09:25:28;101924.91;;;10.77;54.66
52625;BME280;38519;52.540;13.410;2023-05-03T09:28:03;101926.94;;;10.70;55.75
52625;BME280;38519;52.540;13.410;2023-05-03T09:30:29;101928.09;;;10.83;54.67
52625;BME280;38519;52.540;13.410;2023-05-03T09:32:54;101929.84;;;10.92;54.25
52625;BME280;38519;52.540;13.410;2023-05-03T09:35:19;101927.28;;;11.03;53.84
52625;BME280;38519;52.540;13.410;2023-05-03T09:37:45;101928.94;;;10.92;54.00
52625;BME280;38519;52.540;13.410;2023-05-03T09:40:10;101934.06;;;11.01;53.93
52625;BME280;38519;52.540;13.410;2023-05-03T09:42:36;101922.59;;;11.09;52.74
52625;BME280;38519;52.540;13.410;2023-05-03T09:45:02;101925.00;;;11.16;52.83
52625;BME280;38519;52.540;13.410;2023-05-03T09:47:28;101930.91;;;11.24;52.47
52625;BME280;38519;52.540;13.410;2023-05-03T09:49:53;101932.59;;;11.23;52.25
52625;BME280;38519;52.540;13.410;2023-05-03T09:52:19;101922.41;;;11.26;52.77
52625;BME280;38519;52.540;13.410;2023-05-03T09:54:46;101925.41;;;11.21;53.77
52625;BME280;38519;52.540;13.410;2023-05-03T09:57:12;101925.78;;;11.44;52.38
52625;BME280;38519;52.540;13.410;2023-05-03T09:59:38;101923.88;;;11.62;51.43
52625;BME280;38519;52.540;13.410;2023-05-03T10:02:04;101922.97;;;11.72;52.43
52625;BME280;38519;52.540;13.410;2023-05-03T10:04:41;101924.13;;;11.76;51.02
52625;BME280;38519;52.540;13.410;2023-05-03T10:07:08;101925.34;;;11.90;51.21
52625;BME280;38519;52.540;13.410;2023-05-03T10:09:39;101920.69;;;11.56;50.87
52625;BME280;38519;52.540;13.410;2023-05-03T10:12:06;101919.03;;;11.27;50.91
52625;BME280;38519;52.540;13.410;2023-05-03T10:14:32;101917.78;;;11.43;51.20
52625;BME280;38519;52.540;13.410;2023-05-03T10:16:58;101920.50;;;11.84;50.07
52625;BME280;38519;52.540;13.410;2023-05-03T10:24:21;101909.75;;;11.71;49.00
52625;BME280;38519;52.540;13.410;2023-05-03T10:26:47;101906.91;;;11.88;49.42
52625;BME280;38519;52.540;13.410;2023-05-03T10:31:58;101916.88;;;11.92;50.01
52625;BME280;38519;52.540;13.410;2023-05-03T10:34:24;101916.13;;;12.14;50.47
52625;BME280;38519;52.540;13.410;2023-05-03T10:36:49;101913.22;;;12.42;49.51
52625;BME280;38519;52.540;13.410;2023-05-03T10:39:16;101909.06;;;12.23;49.71
52625;BME280;38519;52.540;13.410;2023-05-03T10:41:42;101907.34;;;12.24;49.74
52625;BME280;38519;52.540;13.410;2023-05-03T10:44:24;101900.78;;;12.49;49.00
52625;BME280;38519;52.540;13.410;2023-05-03T10:46:49;101902.97;;;12.65;48.44
52625;BME280;38519;52.540;13.410;2023-05-03T10:49:18;101908.09;;;12.64;48.25
52625;BME280;38519;52.540;13.410;2023-05-03T10:51:43;101906.72;;;12.89;48.43
52625;BME280;38519;52.540;13.410;2023-05-03T10:54:09;101904.22;;;12.91;48.54
52625;BME280;38519;52.540;13.410;2023-05-03T10:56:46;101895.34;;;12.79;47.65
52625;BME280;38519;52.540;13.410;2023-05-03T10:59:11;101898.88;;;12.79;48.62
52625;BME280;38519;52.540;13.410;2023-05-03T11:01:36;101898.72;;;12.88;47.64
52625;BME280;38519;52.540;13.410;2023-05-03T11:08:57;101892.28;;;12.94;47.17
52625;BME280;38519;52.540;13.410;2023-05-03T11:11:22;101893.69;;;13.01;48.02
52625;BME280;38519;52.540;13.410;2023-05-03T11:13:49;101890.47;;;13.16;46.63
52625;BME280;38519;52.540;13.410;2023-05-03T11:16:14;101885.97;;;13.35;48.16
52625;BME280;38519;52.540;13.410;2023-05-03T11:18:39;101889.16;;;13.53;46.23
52625;BME280;38519;52.540;13.410;2023-05-03T11:21:05;101877.44;;;13.60;46.30
52625;BME280;38519;52.540;13.410;2023-05-03T11:23:30;101881.25;;;13.75;47.40
52625;BME280;38519;52.540;13.410;2023-05-03T11:25:55;101885.31;;;13.60;45.91
52625;BME280;38519;52.540;13.410;2023-05-03T11:28:24;101879.41;;;13.30;46.98
52625;BME280;38519;52.540;13.410;2023-05-03T11:30:49;101877.56;;;13.39;47.56
52625;BME280;38519;52.540;13.410;2023-05-03T11:33:15;101879.88;;;13.46;47.30
52625;BME280;38519;52.540;13.410;2023-05-03T11:35:40;101875.84;;;13.62;48.22
52625;BME280;38519;52.540;13.410;2023-05-03T11:38:06;101877.59;;;13.73;46.54
52625;BME280;38519;52.540;13.410;2023-05-03T11:40:32;101869.66;;;13.83;47.34
52625;BME280;38519;52.540;13.410;2023-05-03T11:42:57;101868.94;;;13.74;46.82
52625;BME280;38519;52.540;13.410;2023-05-03T11:45:30;101864.69;;;13.98;46.47
52625;BME280;38519;52.540;13.410;2023-05-03T11:47:57;101859.81;;;14.03;46.00
52625;BME280;38519;52.540;13.410;2023-05-03T11:53:07;101868.44;;;13.90;47.68
52625;BME280;38519;52.540;13.410;2023-05-03T11:55:32;101860.97;;;14.18;46.80
52625;BME280;38519;52.540;13.410;2023-05-03T11:57:59;101865.78;;;14.24;47.96
52625;BME280;38519;52.540;13.410;2023-05-03T12:00:25;101869.06;;;14.10;46.81
52625;BME280;38519;52.540;13.410;2023-05-03T12:02:50;101867.91;;;13.72;47.59
52625;BME280;38519;52.540;13.410;2023-05-03T12:05:16;101863.59;;;13.51;49.44
52625;BME280;38519;52.540;13.410;2023-05-03T12:07:42;101865.28;;;14.06;47.78
52625;BME280;38519;52.540;13.410;2023-05-03T12:10:12;101860.31;;;14.33;46.71
52625;BME280;38519;52.540;13.410;2023-05-03T12:12:37;101859.75;;;14.37;46.71
52625;BME280;38519;52.540;13.410;2023-05-03T12:15:02;101854.81;;;14.30;48.44
52625;BME280;38519;52.540;13.410;2023-05-03T12:17:36;101857.22;;;14.27;47.84
52625;BME280;38519;52.540;13.410;2023-05-03T12:22:40;101842.97;;;15.06;45.18
52625;BME280;38519;52.540;13.410;2023-05-03T12:25:05;101849.53;;;15.24;45.74
52625;BME280;38519;52.540;13.410;2023-05-03T12:27:31;101852.31;;;15.02;44.76
52625;BME280;38519;52.540;13.410;2023-05-03T12:29:56;101847.50;;;15.20;44.93
52625;BME280;38519;52.540;13.410;2023-05-03T12:32:22;101848.00;;;15.03;44.76
52625;BME280;38519;52.540;13.410;2023-05-03T12:34:47;101846.75;;;14.86;46.56
52625;BME280;38519;52.540;13.410;2023-05-03T12:37:12;101840.75;;;15.24;45.20
52625;BME280;38519;52.540;13.410;2023-05-03T12:39:38;101840.63;;;16.10;42.98
52625;BME280;38519;52.540;13.410;2023-05-03T12:42:03;101849.22;;;16.59;42.58
52625;BME280;38519;52.540;13.410;2023-05-03T12:44:29;101840.22;;;17.37;41.53
52625;BME280;38519;52.540;13.410;2023-05-03T12:46:55;101841.72;;;17.75;40.58
52625;BME280;38519;52.540;13.410;2023-05-03T12:49:20;101852.91;;;17.99;39.74
52625;BME280;38519;52.540;13.410;2023-05-03T12:51:45;101851.00;;;18.12;39.43
52625;BME280;38519;52.540;13.410;2023-05-03T12:54:11;101848.91;;;18.06;39.65
52625;BME280;38519;52.540;13.410;2023-05-03T12:56:36;101852.91;;;18.14;38.97
52625;BME280;38519;52.540;13.410;2023-05-03T12:59:01;101842.53;;;18.17;39.75
52625;BME280;38519;52.540;13.410;2023-05-03T13:01:28;101843.59;;;18.36;39.55
52625;BME280;38519;52.540;13.410;2023-05-03T13:03:53;101843.06;;;18.42;40.42
52625;BME280;38519;52.540;13.410;2023-05-03T13:06:18;101841.06;;;18.37;41.27
52625;BME280;38519;52.540;13.410;2023-05-03T13:08:44;101839.53;;;17.26;43.81